sensor_id;sensor_type;location;lat;lon;timestamp;pressure;altitude;pressure_sealevel;temperature;humidity
59654;BME280;66556;52.008;5.432;2023-04-21T00:01:48;101594.0;;;25.61;29.27
59654;BME280;66556;52.008;5.432;2023-04-21T00:03:25;101588.0;;;26.33;28.22
59654;BME280;66556;52.008;5.432;2023-04-21T00:05:01;101583.0;;;26.05;28.61
59654;BME280;66556;52.008;5.432;2023-04-21T00:08:14;101576.0;;;26.21;28.41
59654;BME280;66556;52.008;5.432;2023-04-21T00:09:50;101573.0;;;25.46;29.73
59654;BME280;66556;52.008;5.432;2023-04-21T00:11:27;101569.0;;;25.64;29.12
59654;BME280;66556;52.008;5.432;2023-04-21T00:14:39;101572.0;;;25.99;28.95
59654;BME280;66556;52.008;5.432;2023-04-21T00:16:15;101568.0;;;25.82;29.12
59654;BME280;66556;52.008;5.432;2023-04-21T00:17:51;101566.0;;;26.29;28.35
59654;BME280;66556;52.008;5.432;2023-04-21T00:21:04;101565.0;;;26.3;28.32
59654;BME280;66556;52.008;5.432;2023-04-21T00:22:40;101557.0;;;26.32;28.15
59654;BME280;66556;52.008;5.432;2023-04-21T00:24:16;101551.0;;;26.36;28.39
59654;BME280;66556;52.008;5.432;2023-04-21T00:25:52;101555.0;;;26.27;28.43
59654;BME280;66556;52.008;5.432;2023-04-21T00:29:04;101547.0;;;26.36;28.34
59654;BME280;66556;52.008;5.432;2023-04-21T00:30:40;101550.0;;;26.32;28.54
59654;BME280;66556;52.008;5.432;2023-04-21T00:32:16;101539.0;;;25.83;29.25
59654;BME280;66556;52.008;5.432;2023-04-21T00:35:28;101544.0;;;24.82;30.93
59654;BME280;66556;52.008;5.432;2023-04-21T00:37:05;101542.0;;;25.02;30.71
59654;BME280;66556;52.008;5.432;2023-04-21T00:38:41;101540.0;;;25.63;29.57
59654;BME280;66556;52.008;5.432;2023-04-21T00:41:53;101539.0;;;25.66;29.51
59654;BME280;66556;52.008;5.432;2023-04-21T00:43:29;101536.0;;;25.79;29.4
59654;BME280;66556;52.008;5.432;2023-04-21T00:45:06;101536.0;;;25.43;29.63
59654;BME280;66556;52.008;5.432;2023-04-21T00:46:42;101524.0;;;25.53;29.7
59654;BME280;66556;52.008;5.432;2023-04-21T00:49:55;101516.0;;;25.38;29.72
59654;BME280;66556;52.008;5.432;2023-04-21T00:51:33;101514.0;;;25.23;29.8
59654;BME280;66556;52.008;5.432;2023-04-21T00:53:10;101523.0;;;25.14;30.32
59654;BME280;66556;52.008;5.432;2023-04-21T00:56:26;101525.0;;;25.12;30.36
59654;BME280;66556;52.008;5.432;2023-04-21T00:58:05;101521.0;;;25.72;29.62
59654;BME280;66556;52.008;5.432;2023-04-21T00:59:41;101520.0;;;24.98;30.75
59654;BME280;66556;52.008;5.432;2023-04-21T01:02:54;101514.0;;;25.14;30.62
59654;BME280;66556;52.008;5.432;2023-04-21T01:04:31;101511.0;;;24.84;31.18
59654;BME280;66556;52.008;5.432;2023-04-21T01:06:08;101516.0;;;24.9;31.0
59654;BME280;66556;52.008;5.432;2023-04-21T01:07:45;101519.0;;;24.77;31.09
59654;BME280;66556;52.008;5.432;2023-04-21T01:10:57;101511.0;;;25.37;30.3
59654;BME280;66556;52.008;5.432;2023-04-21T01:12:41;101505.0;;;25.78;29.88
59654;BME280;66556;52.008;5.432;2023-04-21T01:14:17;101506.0;;;25.03;30.78
59654;BME280;66556;52.008;5.432;2023-04-21T01:17:29;101505.0;;;25.34;30.3
59654;BME280;66556;52.008;5.432;2023-04-21T01:19:05;101505.0;;;25.34;30.4
59654;BME280;66556;52.008;5.432;2023-04-21T01:20:41;101506.0;;;25.72;29.97
59654;BME280;66556;52.008;5.432;2023-04-21T01:22:17;101503.0;;;25.27;30.46
59654;BME280;66556;52.008;5.432;2023-04-21T01:25:30;101497.0;;;25.43;30.28
59654;BME280;66556;52.008;5.432;2023-04-21T01:27:08;101493.0;;;25.57;30.11
59654;BME280;66556;52.008;5.432;2023-04-21T01:28:45;101493.0;;;25.4;30.37
59654;BME280;66556;52.008;5.432;2023-04-21T01:31:57;101485.0;;;25.56;30.14
59654;BME280;66556;52.008;5.432;2023-04-21T01:33:33;101494.0;;;25.59;29.91
59654;BME280;66556;52.008;5.432;2023-04-21T01:35:09;101494.0;;;25.83;29.85
59654;BME280;66556;52.008;5.432;2023-04-21T01:38:22;101492.0;;;25.63;29.96
59654;BME280;66556;52.008;5.432;2023-04-21T01:40:01;101488.0;;;25.12;31.21
59654;BME280;66556;52.008;5.432;2023-04-21T01:41:39;101480.0;;;25.74;29.88
59654;BME280;66556;52.008;5.432;2023-04-21T01:43:19;101481.0;;;25.44;30.18
59654;BME280;66556;52.008;5.432;2023-04-21T01:46:32;101473.0;;;26.25;29.25
59654;BME280;66556;52.008;5.432;2023-04-21T01:48:08;101470.0;;;25.74;29.78
59654;BME280;66556;52.008;5.432;2023-04-21T01:49:44;101472.0;;;25.7;30.02
59654;BME280;66556;52.008;5.432;2023-04-21T01:52:57;101471.0;;;25.77;29.84
59654;BME280;66556;52.008;5.432;2023-04-21T01:54:33;101469.0;;;25.73;30.32
59654;BME280;66556;52.008;5.432;2023-04-21T01:56:12;101472.0;;;25.51;30.49
59654;BME280;66556;52.008;5.432;2023-04-21T01:59:25;101477.0;;;25.61;30.31
59654;BME280;66556;52.008;5.432;2023-04-21T02:01:01;101477.0;;;25.76;30.06
59654;BME280;66556;52.008;5.432;2023-04-21T02:02:38;101482.0;;;25.63;30.09
59654;BME280;66556;52.008;5.432;2023-04-21T02:04:14;101482.0;;;25.56;30.4
59654;BME280;66556;52.008;5.432;2023-04-21T02:07:27;101480.0;;;24.83;31.57
59654;BME280;66556;52.008;5.432;2023-04-21T02:09:03;101477.0;;;25.22;31.01
59654;BME280;66556;52.008;5.432;2023-04-21T02:10:39;101476.0;;;25.37;30.8
59654;BME280;66556;52.008;5.432;2023-04-21T02:13:52;101472.0;;;25.53;30.69
59654;BME280;66556;52.008;5.432;2023-04-21T02:15:29;101480.0;;;25.43;30.68
59654;BME280;66556;52.008;5.432;2023-04-21T02:17:05;101465.0;;;25.62;30.49
59654;BME280;66556;52.008;5.432;2023-04-21T02:20:17;101463.0;;;25.94;29.88
59654;BME280;66556;52.008;5.432;2023-04-21T02:21:53;101461.0;;;26.06;29.76
59654;BME280;66556;52.008;5.432;2023-04-21T02:23:29;101457.0;;;26.11;29.94
59654;BME280;66556;52.008;5.432;2023-04-21T02:25:06;101457.0;;;25.67;30.76
59654;BME280;66556;52.008;5.432;2023-04-21T02:28:18;101460.0;;;25.54;30.5
59654;BME280;66556;52.008;5.432;2023-04-21T02:29:54;101455.0;;;25.82;30.44
59654;BME280;66556;52.008;5.432;2023-04-21T02:31:30;101453.0;;;26.07;29.78
59654;BME280;66556;52.008;5.432;2023-04-21T02:34:42;101455.0;;;26.25;29.7
59654;BME280;66556;52.008;5.432;2023-04-21T02:36:18;101459.0;;;26.0;30.14
59654;BME280;66556;52.008;5.432;2023-04-21T02:37:54;101467.0;;;25.78;30.41
59654;BME280;66556;52.008;5.432;2023-04-21T02:41:07;101460.0;;;25.92;30.25
59654;BME280;66556;52.008;5.432;2023-04-21T02:42:43;101456.0;;;25.91;30.15
59654;BME280;66556;52.008;5.432;2023-04-21T02:44:19;101447.0;;;26.07;30.13
59654;BME280;66556;52.008;5.432;2023-04-21T02:47:32;101442.0;;;25.91;30.11
59654;BME280;66556;52.008;5.432;2023-04-21T02:49:09;101442.0;;;26.11;29.81
59654;BME280;66556;52.008;5.432;2023-04-21T02:50:45;101443.0;;;26.13;29.72
59654;BME280;66556;52.008;5.432;2023-04-21T02:52:22;101441.0;;;26.36;29.55
59654;BME280;66556;52.008;5.432;2023-04-21T02:55:34;101439.0;;;25.82;30.23
59654;BME280;66556;52.008;5.432;2023-04-21T02:57:10;101441.0;;;26.26;29.88
59654;BME280;66556;52.008;5.432;2023-04-21T02:58:46;101436.0;;;25.98;29.99
59654;BME280;66556;52.008;5.432;2023-04-21T03:01:58;101438.0;;;26.36;29.54
59654;BME280;66556;52.008;5.432;2023-04-21T03:03:34;101438.0;;;25.97;30.33
59654;BME280;66556;52.008;5.432;2023-04-21T03:05:11;101451.0;;;25.59;30.83
59654;BME280;66556;52.008;5.432;2023-04-21T03:08:23;101458.0;;;25.38;30.93
59654;BME280;66556;52.008;5.432;2023-04-21T03:10:00;101451.0;;;25.59;30.78
59654;BME280;66556;52.008;5.432;2023-04-21T03:11:36;101440.0;;;25.92;29.92
59654;BME280;66556;52.008;5.432;2023-04-21T03:13:12;101455.0;;;25.63;30.7
59654;BME280;66556;52.008;5.432;2023-04-21T03:16:25;101446.0;;;26.19;30.11
59654;BME280;66556;52.008;5.432;2023-04-21T03:18:01;101433.0;;;25.92;30.1
59654;BME280;66556;52.008;5.432;2023-04-21T03:19:37;101435.0;;;26.12;30.25
59654;BME280;66556;52.008;5.432;2023-04-21T03:22:52;101427.0;;;26.26;29.72
59654;BME280;66556;52.008;5.432;2023-04-21T03:24:28;101423.0;;;25.89;30.46
59654;BME280;66556;52.008;5.432;2023-04-21T03:26:06;101427.0;;;26.23;29.76
59654;BME280;66556;52.008;5.432;2023-04-21T03:29:19;101423.0;;;26.13;29.93
59654;BME280;66556;52.008;5.432;2023-04-21T03:30:55;101427.0;;;26.08;29.96
59654;BME280;66556;52.008;5.432;2023-04-21T03:32:31;101426.0;;;26.33;29.46
59654;BME280;66556;52.008;5.432;2023-04-21T03:34:07;101415.0;;;26.17;30.14
59654;BME280;66556;52.008;5.432;2023-04-21T03:37:19;101420.0;;;26.01;30.18
59654;BME280;66556;52.008;5.432;2023-04-21T03:38:55;101413.0;;;26.2;30.15
59654;BME280;66556;52.008;5.432;2023-04-21T03:40:32;101411.0;;;25.93;30.31
59654;BME280;66556;52.008;5.432;2023-04-21T03:43:43;101403.0;;;25.84;30.39
59654;BME280;66556;52.008;5.432;2023-04-21T03:45:19;101412.0;;;25.66;31.05
59654;BME280;66556;52.008;5.432;2023-04-21T03:46:55;101403.0;;;25.84;30.53
59654;BME280;66556;52.008;5.432;2023-04-21T03:50:08;101399.0;;;25.94;30.56
59654;BME280;66556;52.008;5.432;2023-04-21T03:51:44;101405.0;;;26.21;30.23
59654;BME280;66556;52.008;5.432;2023-04-21T03:53:20;101402.0;;;26.0;30.39
59654;BME280;66556;52.008;5.432;2023-04-21T03:56:32;101400.0;;;26.05;30.26
59654;BME280;66556;52.008;5.432;2023-04-21T03:58:08;101409.0;;;25.93;30.56
59654;BME280;66556;52.008;5.432;2023-04-21T03:59:44;101409.0;;;25.89;30.6
59654;BME280;66556;52.008;5.432;2023-04-21T04:01:20;101410.0;;;25.77;30.78
59654;BME280;66556;52.008;5.432;2023-04-21T04:04:33;101402.0;;;25.61;31.23
59654;BME280;66556;52.008;5.432;2023-04-21T04:06:09;101407.0;;;25.86;30.75
59654;BME280;66556;52.008;5.432;2023-04-21T04:07:45;101401.0;;;25.57;30.94
59654;BME280;66556;52.008;5.432;2023-04-21T04:10:56;101386.0;;;25.51;31.09
59654;BME280;66556;52.008;5.432;2023-04-21T04:12:32;101394.0;;;25.55;30.96
59654;BME280;66556;52.008;5.432;2023-04-21T04:14:08;101395.0;;;25.68;30.84
59654;BME280;66556;52.008;5.432;2023-04-21T04:17:21;101399.0;;;25.27;31.49
59654;BME280;66556;52.008;5.432;2023-04-21T04:18:57;101395.0;;;25.26;30.98
59654;BME280;66556;52.008;5.432;2023-04-21T04:20:33;101397.0;;;25.62;30.83
59654;BME280;66556;52.008;5.432;2023-04-21T04:23:45;101389.0;;;25.75;31.0
59654;BME280;66556;52.008;5.432;2023-04-21T04:25:22;101383.0;;;25.64;30.92
59654;BME280;66556;52.008;5.432;2023-04-21T04:26:58;101390.0;;;26.01;30.42
59654;BME280;66556;52.008;5.432;2023-04-21T04:28:34;101386.0;;;25.56;31.14
59654;BME280;66556;52.008;5.432;2023-04-21T04:31:48;101389.0;;;25.61;30.96
59654;BME280;66556;52.008;5.432;2023-04-21T04:33:24;101392.0;;;25.87;30.74
59654;BME280;66556;52.008;5.432;2023-04-21T04:35:00;101398.0;;;25.64;31.19
59654;BME280;66556;52.008;5.432;2023-04-21T04:38:12;101396.0;;;25.83;30.91
59654;BME280;66556;52.008;5.432;2023-04-21T04:39:51;101397.0;;;25.56;31.27
59654;BME280;66556;52.008;5.432;2023-04-21T04:41:28;101391.0;;;25.48;31.43
59654;BME280;66556;52.008;5.432;2023-04-21T04:44:41;101387.0;;;25.88;30.92
59654;BME280;66556;52.008;5.432;2023-04-21T04:46:17;101392.0;;;26.04;30.51
59654;BME280;66556;52.008;5.432;2023-04-21T04:47:53;101391.0;;;25.69;31.01
59654;BME280;66556;52.008;5.432;2023-04-21T04:49:29;101391.0;;;25.69;31.11
59654;BME280;66556;52.008;5.432;2023-04-21T04:52:41;101390.0;;;26.06;30.35
59654;BME280;66556;52.008;5.432;2023-04-21T04:54:18;101395.0;;;25.66;30.98
59654;BME280;66556;52.008;5.432;2023-04-21T04:55:54;101390.0;;;25.85;30.84
59654;BME280;66556;52.008;5.432;2023-04-21T04:59:06;101388.0;;;26.21;30.16
59654;BME280;66556;52.008;5.432;2023-04-21T05:00:42;101387.0;;;25.72;31.07
59654;BME280;66556;52.008;5.432;2023-04-21T05:02:18;101393.0;;;26.05;30.16
59654;BME280;66556;52.008;5.432;2023-04-21T05:05:32;101397.0;;;26.22;29.98
59654;BME280;66556;52.008;5.432;2023-04-21T05:07:08;101405.0;;;26.03;30.63
59654;BME280;66556;52.008;5.432;2023-04-21T05:08:44;101408.0;;;26.17;30.44
59654;BME280;66556;52.008;5.432;2023-04-21T05:10:20;101410.0;;;25.98;30.56
59654;BME280;66556;52.008;5.432;2023-04-21T05:13:32;101405.0;;;26.1;30.44
59654;BME280;66556;52.008;5.432;2023-04-21T05:15:09;101407.0;;;25.56;31.24
59654;BME280;66556;52.008;5.432;2023-04-21T05:16:44;101409.0;;;25.77;31.07
59654;BME280;66556;52.008;5.432;2023-04-21T05:19:58;101411.0;;;26.12;30.76
59654;BME280;66556;52.008;5.432;2023-04-21T05:21:34;101413.0;;;26.04;30.82
59654;BME280;66556;52.008;5.432;2023-04-21T05:23:10;101406.0;;;25.74;31.2
59654;BME280;66556;52.008;5.432;2023-04-21T05:26:23;101413.0;;;26.06;30.87
59654;BME280;66556;52.008;5.432;2023-04-21T05:27:59;101408.0;;;26.04;30.86
59654;BME280;66556;52.008;5.432;2023-04-21T05:29:35;101414.0;;;26.39;30.39
59654;BME280;66556;52.008;5.432;2023-04-21T05:31:12;101415.0;;;25.54;31.08
59654;BME280;66556;52.008;5.432;2023-04-21T05:34:23;101406.0;;;25.65;31.73
59654;BME280;66556;52.008;5.432;2023-04-21T05:35:59;101411.0;;;25.75;31.48
59654;BME280;66556;52.008;5.432;2023-04-21T05:37:35;101413.0;;;25.97;31.18
59654;BME280;66556;52.008;5.432;2023-04-21T05:40:52;101419.0;;;26.29;30.6
59654;BME280;66556;52.008;5.432;2023-04-21T05:42:29;101420.0;;;26.16;30.98
59654;BME280;66556;52.008;5.432;2023-04-21T05:44:05;101425.0;;;26.35;30.59
59654;BME280;66556;52.008;5.432;2023-04-21T05:47:17;101428.0;;;25.82;31.11
59654;BME280;66556;52.008;5.432;2023-04-21T05:48:53;101441.0;;;25.43;32.15
59654;BME280;66556;52.008;5.432;2023-04-21T05:50:29;101442.0;;;25.65;32.01
59654;BME280;66556;52.008;5.432;2023-04-21T05:53:45;101443.0;;;26.3;31.0
59654;BME280;66556;52.008;5.432;2023-04-21T05:55:21;101437.0;;;26.48;30.79
59654;BME280;66556;52.008;5.432;2023-04-21T05:56:57;101438.0;;;25.48;31.93
59654;BME280;66556;52.008;5.432;2023-04-21T05:58:33;101441.0;;;26.07;31.21
59654;BME280;66556;52.008;5.432;2023-04-21T06:01:46;101444.0;;;26.31;31.24
59654;BME280;66556;52.008;5.432;2023-04-21T06:03:22;101445.0;;;26.37;31.01
59654;BME280;66556;52.008;5.432;2023-04-21T06:04:58;101445.0;;;26.27;31.09
59654;BME280;66556;52.008;5.432;2023-04-21T06:08:11;101448.0;;;25.95;31.81
59654;BME280;66556;52.008;5.432;2023-04-21T06:09:49;101446.0;;;26.13;31.53
59654;BME280;66556;52.008;5.432;2023-04-21T06:11:25;101442.0;;;25.34;32.64
59654;BME280;66556;52.008;5.432;2023-04-21T06:14:37;101440.0;;;25.42;32.67
59654;BME280;66556;52.008;5.432;2023-04-21T06:16:13;101432.0;;;25.8;31.88
59654;BME280;66556;52.008;5.432;2023-04-21T06:17:52;101435.0;;;25.37;32.89
59654;BME280;66556;52.008;5.432;2023-04-21T06:19:28;101430.0;;;25.82;32.24
59654;BME280;66556;52.008;5.432;2023-04-21T06:22:40;101430.0;;;25.92;31.93
59654;BME280;66556;52.008;5.432;2023-04-21T06:24:16;101431.0;;;25.6;32.69
59654;BME280;66556;52.008;5.432;2023-04-21T06:26:00;101427.0;;;25.78;32.43
59654;BME280;66556;52.008;5.432;2023-04-21T06:29:14;101430.0;;;26.34;31.48
59654;BME280;66556;52.008;5.432;2023-04-21T06:30:50;101432.0;;;26.68;31.01
59654;BME280;66556;52.008;5.432;2023-04-21T06:32:26;101432.0;;;26.43;31.79
59654;BME280;66556;52.008;5.432;2023-04-21T06:34:03;101434.0;;;26.07;32.04
59654;BME280;66556;52.008;5.432;2023-04-21T06:37:15;101436.0;;;26.4;31.62
59654;BME280;66556;52.008;5.432;2023-04-21T06:38:51;101432.0;;;26.77;31.17
59654;BME280;66556;52.008;5.432;2023-04-21T06:40:28;101430.0;;;26.74;31.53
59654;BME280;66556;52.008;5.432;2023-04-21T06:43:40;101432.0;;;26.92;31.35
59654;BME280;66556;52.008;5.432;2023-04-21T06:45:16;101427.0;;;26.71;32.71
59654;BME280;66556;52.008;5.432;2023-04-21T06:46:53;101424.0;;;27.31;32.5
59654;BME280;66556;52.008;5.432;2023-04-21T06:50:06;101419.0;;;27.65;32.19
59654;BME280;66556;52.008;5.432;2023-04-21T06:51:42;101431.0;;;27.39;31.75
59654;BME280;66556;52.008;5.432;2023-04-21T06:53:18;101424.0;;;27.46;31.29
59654;BME280;66556;52.008;5.432;2023-04-21T06:54:55;101421.0;;;27.98;31.73
59654;BME280;66556;52.008;5.432;2023-04-21T06:58:07;101423.0;;;28.32;30.75
59654;BME280;66556;52.008;5.432;2023-04-21T06:59:43;101424.0;;;28.33;30.52
59654;BME280;66556;52.008;5.432;2023-04-21T07:01:19;101420.0;;;28.27;30.19
59654;BME280;66556;52.008;5.432;2023-04-21T07:04:31;101421.0;;;28.97;29.83
59654;BME280;66556;52.008;5.432;2023-04-21T07:06:07;101424.0;;;27.92;30.22
59654;BME280;66556;52.008;5.432;2023-04-21T07:07:43;101419.0;;;28.54;30.02
59654;BME280;66556;52.008;5.432;2023-04-21T07:10:55;101423.0;;;28.74;29.28
59654;BME280;66556;52.008;5.432;2023-04-21T07:12:32;101428.0;;;28.67;29.81
59654;BME280;66556;52.008;5.432;2023-04-21T07:14:08;101431.0;;;28.73;30.05
59654;BME280;66556;52.008;5.432;2023-04-21T07:17:20;101428.0;;;29.2;29.96
59654;BME280;66556;52.008;5.432;2023-04-21T07:18:56;101428.0;;;28.63;29.54
59654;BME280;66556;52.008;5.432;2023-04-21T07:20:33;101418.0;;;29.27;28.84
59654;BME280;66556;52.008;5.432;2023-04-21T07:22:09;101417.0;;;29.6;28.27
59654;BME280;66556;52.008;5.432;2023-04-21T07:25:21;101430.0;;;29.15;28.48
59654;BME280;66556;52.008;5.432;2023-04-21T07:26:57;101426.0;;;29.71;28.47
59654;BME280;66556;52.008;5.432;2023-04-21T07:28:33;101432.0;;;29.22;28.13
59654;BME280;66556;52.008;5.432;2023-04-21T07:31:46;101419.0;;;30.2;27.55
59654;BME280;66556;52.008;5.432;2023-04-21T07:33:22;101425.0;;;29.66;28.24
59654;BME280;66556;52.008;5.432;2023-04-21T07:34:58;101421.0;;;30.55;27.66
59654;BME280;66556;52.008;5.432;2023-04-21T07:38:11;101424.0;;;30.42;27.1
59654;BME280;66556;52.008;5.432;2023-04-21T07:39:47;101423.0;;;30.32;26.82
59654;BME280;66556;52.008;5.432;2023-04-21T07:41:23;101419.0;;;30.93;26.69
59654;BME280;66556;52.008;5.432;2023-04-21T07:42:59;101428.0;;;30.28;26.64
59654;BME280;66556;52.008;5.432;2023-04-21T07:46:11;101431.0;;;29.97;27.16
59654;BME280;66556;52.008;5.432;2023-04-21T07:47:47;101431.0;;;29.16;27.45
59654;BME280;66556;52.008;5.432;2023-04-21T07:49:24;101424.0;;;29.69;27.64
59654;BME280;66556;52.008;5.432;2023-04-21T07:52:37;101425.0;;;29.59;27.37
59654;BME280;66556;52.008;5.432;2023-04-21T07:54:13;101421.0;;;30.31;27.26
59654;BME280;66556;52.008;5.432;2023-04-21T07:55:49;101420.0;;;30.64;26.35
59654;BME280;66556;52.008;5.432;2023-04-21T07:59:02;101428.0;;;29.55;26.95
59654;BME280;66556;52.008;5.432;2023-04-21T08:00:40;101430.0;;;29.83;26.43
59654;BME280;66556;52.008;5.432;2023-04-21T08:02:18;101423.0;;;29.65;26.73
59654;BME280;66556;52.008;5.432;2023-04-21T08:03:57;101412.0;;;30.93;25.8
59654;BME280;66556;52.008;5.432;2023-04-21T08:07:12;101417.0;;;30.36;26.57
59654;BME280;66556;52.008;5.432;2023-04-21T08:08:49;101408.0;;;29.82;26.15
59654;BME280;66556;52.008;5.432;2023-04-21T08:10:27;101413.0;;;30.87;25.95
59654;BME280;66556;52.008;5.432;2023-04-21T08:13:42;101421.0;;;29.03;27.01
59654;BME280;66556;52.008;5.432;2023-04-21T08:15:20;101423.0;;;29.02;27.13
59654;BME280;66556;52.008;5.432;2023-04-21T08:16:58;101425.0;;;29.38;26.35
59654;BME280;66556;52.008;5.432;2023-04-21T08:18:34;101424.0;;;28.89;27.01
59654;BME280;66556;52.008;5.432;2023-04-21T08:21:49;101423.0;;;28.93;26.9
59654;BME280;66556;52.008;5.432;2023-04-21T08:23:27;101418.0;;;29.69;27.17
59654;BME280;66556;52.008;5.432;2023-04-21T08:25:05;101412.0;;;29.58;26.85
59654;BME280;66556;52.008;5.432;2023-04-21T08:28:18;101412.0;;;29.47;27.25
59654;BME280;66556;52.008;5.432;2023-04-21T08:29:56;101410.0;;;29.99;26.46
59654;BME280;66556;52.008;5.432;2023-04-21T08:31:34;101414.0;;;29.98;26.75
59654;BME280;66556;52.008;5.432;2023-04-21T08:34:49;101413.0;;;29.72;26.85
59654;BME280;66556;52.008;5.432;2023-04-21T08:36:26;101413.0;;;29.1;28.02
59654;BME280;66556;52.008;5.432;2023-04-21T08:38:04;101407.0;;;29.77;28.02
59654;BME280;66556;52.008;5.432;2023-04-21T08:39:42;101409.0;;;29.88;27.48
59654;BME280;66556;52.008;5.432;2023-04-21T08:42:58;101409.0;;;30.2;26.87
59654;BME280;66556;52.008;5.432;2023-04-21T08:44:37;101417.0;;;30.43;26.32
59654;BME280;66556;52.008;5.432;2023-04-21T08:46:13;101421.0;;;29.77;26.05
59654;BME280;66556;52.008;5.432;2023-04-21T08:47:52;101417.0;;;30.26;25.95
59654;BME280;66556;52.008;5.432;2023-04-21T08:51:09;101405.0;;;30.5;25.77
59654;BME280;66556;52.008;5.432;2023-04-21T08:52:46;101403.0;;;30.6;25.82
59654;BME280;66556;52.008;5.432;2023-04-21T08:54:24;101406.0;;;29.54;26.33
59654;BME280;66556;52.008;5.432;2023-04-21T08:57:41;101392.0;;;30.52;25.99
59654;BME280;66556;52.008;5.432;2023-04-21T08:59:18;101405.0;;;30.2;26.44
59654;BME280;66556;52.008;5.432;2023-04-21T09:00:56;101403.0;;;29.71;26.34
59654;BME280;66556;52.008;5.432;2023-04-21T09:02:51;101398.0;;;29.78;27.02
59654;BME280;66556;52.008;5.432;2023-04-21T09:06:07;101401.0;;;29.45;26.87
59654;BME280;66556;52.008;5.432;2023-04-21T09:07:46;101402.0;;;29.82;26.7
59654;BME280;66556;52.008;5.432;2023-04-21T09:09:24;101412.0;;;29.04;27.26
59654;BME280;66556;52.008;5.432;2023-04-21T09:11:02;101412.0;;;29.68;26.86
59654;BME280;66556;52.008;5.432;2023-04-21T09:14:18;101414.0;;;28.79;27.36
59654;BME280;66556;52.008;5.432;2023-04-21T09:15:55;101417.0;;;28.57;27.91
59654;BME280;66556;52.008;5.432;2023-04-21T09:17:33;101409.0;;;28.89;27.27
59654;BME280;66556;52.008;5.432;2023-04-21T09:21:04;101406.0;;;28.64;27.57
59654;BME280;66556;52.008;5.432;2023-04-21T09:22:43;101407.0;;;28.78;27.86
59654;BME280;66556;52.008;5.432;2023-04-21T09:24:21;101415.0;;;29.17;27.49
59654;BME280;66556;52.008;5.432;2023-04-21T09:26:02;101399.0;;;29.9;27.58
59654;BME280;66556;52.008;5.432;2023-04-21T09:27:40;101405.0;;;29.64;27.21
59654;BME280;66556;52.008;5.432;2023-04-21T09:30:58;101401.0;;;30.13;27.18
59654;BME280;66556;52.008;5.432;2023-04-21T09:32:36;101408.0;;;29.83;26.81
59654;BME280;66556;52.008;5.432;2023-04-21T09:34:17;101408.0;;;29.25;27.14
59654;BME280;66556;52.008;5.432;2023-04-21T09:37:32;101418.0;;;29.11;27.19
59654;BME280;66556;52.008;5.432;2023-04-21T09:39:09;101410.0;;;28.94;27.97
59654;BME280;66556;52.008;5.432;2023-04-21T09:40:55;101405.0;;;29.86;27.05
59654;BME280;66556;52.008;5.432;2023-04-21T09:42:33;101396.0;;;30.07;26.62
59654;BME280;66556;52.008;5.432;2023-04-21T09:45:49;101395.0;;;30.53;26.74
59654;BME280;66556;52.008;5.432;2023-04-21T09:47:28;101392.0;;;30.09;26.85
59654;BME280;66556;52.008;5.432;2023-04-21T09:49:06;101395.0;;;30.66;25.84
59654;BME280;66556;52.008;5.432;2023-04-21T09:50:46;101397.0;;;30.2;26.46
59654;BME280;66556;52.008;5.432;2023-04-21T09:54:08;101391.0;;;30.43;26.07
59654;BME280;66556;52.008;5.432;2023-04-21T09:55:55;101390.0;;;29.91;26.19
59654;BME280;66556;52.008;5.432;2023-04-21T09:57:37;101386.0;;;30.34;25.85
59654;BME280;66556;52.008;5.432;2023-04-21T09:59:18;101388.0;;;30.47;26.46
59654;BME280;66556;52.008;5.432;2023-04-21T10:02:43;101391.0;;;30.65;25.69
59654;BME280;66556;52.008;5.432;2023-04-21T10:04:21;101390.0;;;29.77;26.28
59654;BME280;66556;52.008;5.432;2023-04-21T10:06:01;101393.0;;;29.69;26.23
59654;BME280;66556;52.008;5.432;2023-04-21T10:07:38;101396.0;;;29.52;26.0
59654;BME280;66556;52.008;5.432;2023-04-21T10:10:59;101384.0;;;30.45;25.92
59654;BME280;66556;52.008;5.432;2023-04-21T10:12:37;101384.0;;;30.13;27.05
59654;BME280;66556;52.008;5.432;2023-04-21T10:14:13;101390.0;;;29.59;27.14
59654;BME280;66556;52.008;5.432;2023-04-21T10:16:00;101388.0;;;30.38;26.06
59654;BME280;66556;52.008;5.432;2023-04-21T10:19:24;101387.0;;;30.05;26.31
59654;BME280;66556;52.008;5.432;2023-04-21T10:21:05;101377.0;;;29.64;27.29
59654;BME280;66556;52.008;5.432;2023-04-21T10:22:56;101377.0;;;31.05;26.45
59654;BME280;66556;52.008;5.432;2023-04-21T10:24:36;101375.0;;;31.39;26.05
59654;BME280;66556;52.008;5.432;2023-04-21T10:26:20;101375.0;;;30.34;26.03
59654;BME280;66556;52.008;5.432;2023-04-21T10:29:36;101381.0;;;30.93;25.41
59654;BME280;66556;52.008;5.432;2023-04-21T10:31:18;101382.0;;;31.54;24.08
59654;BME280;66556;52.008;5.432;2023-04-21T10:33:03;101377.0;;;30.93;25.35
59654;BME280;66556;52.008;5.432;2023-04-21T10:34:40;101377.0;;;31.66;24.5
59654;BME280;66556;52.008;5.432;2023-04-21T10:38:01;101372.0;;;30.61;24.79
59654;BME280;66556;52.008;5.432;2023-04-21T10:39:43;101370.0;;;30.89;24.4
59654;BME280;66556;52.008;5.432;2023-04-21T10:41:35;101365.0;;;30.98;24.8
59654;BME280;66556;52.008;5.432;2023-04-21T10:43:41;101368.0;;;30.17;25.75
59654;BME280;66556;52.008;5.432;2023-04-21T10:45:24;101362.0;;;31.06;25.23
59654;BME280;66556;52.008;5.432;2023-04-21T10:48:51;101360.0;;;30.74;25.75
59654;BME280;66556;52.008;5.432;2023-04-21T10:50:30;101361.0;;;30.41;26.42
59654;BME280;66556;52.008;5.432;2023-04-21T10:52:08;101364.0;;;30.1;26.19
59654;BME280;66556;52.008;5.432;2023-04-21T10:53:46;101356.0;;;30.66;26.33
59654;BME280;66556;52.008;5.432;2023-04-21T10:57:05;101355.0;;;31.41;25.24
59654;BME280;66556;52.008;5.432;2023-04-21T10:58:44;101347.0;;;32.5;23.9
59654;BME280;66556;52.008;5.432;2023-04-21T11:00:24;101343.0;;;31.71;24.05
59654;BME280;66556;52.008;5.432;2023-04-21T11:02:02;101342.0;;;32.28;24.2
59654;BME280;66556;52.008;5.432;2023-04-21T11:05:17;101349.0;;;32.05;24.17
59654;BME280;66556;52.008;5.432;2023-04-21T11:07:05;101343.0;;;32.46;23.34